.
WxDataArchive / Data Records for 2007-08-02
2007-08-01 August 2007 2007-08-03

Data Records for Thursday, 02 August 2007

Time	Temp	Chill	HIndex	Humid	Dewpt	 Wind 	HiWind	WindDir	Rain 	Barom 
-----	----	-----	------	-----	-----	------	------	-------	-----	----- 
00:00	73.5	73.5	73.5	82	67.7	0	0	---	0.00	29.926 
00:05	73.5	73.5	73.5	82	67.7	0	0	---	0.00	29.927 
00:10	73.5	73.5	73.5	82	67.7	0	0	---	0.00	29.928 
00:15	73.3	73.3	73.3	83	67.8	0	0	---	0.00	29.928 
00:20	73.3	73.3	73.3	83	67.8	0	0	---	0.00	29.928 
00:25	73.2	73.2	73.2	83	67.7	0	0	---	0.00	29.929 
00:30	73.2	73.2	73.2	84	68.1	0	0	---	0.00	29.932 
00:35	73.0	73.0	73.0	85	68.2	0	0	---	0.00	29.936 
00:40	72.8	72.8	72.8	85	68.0	0	0	---	0.00	29.939 
00:45	72.7	72.7	72.7	85	67.9	0	0	---	0.00	29.938 
00:50	72.5	72.5	72.5	85	67.7	0	0	---	0.00	29.938 
00:55	72.3	72.3	72.3	86	67.9	0	0	---	0.00	29.937 
01:00	72.1	72.1	72.1	86	67.7	0	0	---	0.00	29.935 
01:05	72.1	72.1	72.1	87	68.0	0	0	---	0.00	29.930 
01:10	72.0	72.0	72.0	87	67.9	0	0	---	0.00	29.928 
01:15	71.8	71.8	71.8	87	67.7	0	0	---	0.00	29.927 
01:20	71.6	71.6	71.6	88	67.8	0	0	---	0.00	29.926 
01:25	71.6	71.6	71.6	88	67.8	0	0	---	0.00	29.927 
01:30	71.6	71.6	71.6	88	67.8	0	0	---	0.00	29.927 
01:35	71.5	71.5	71.5	88	67.7	0	0	---	0.00	29.928 
01:40	71.3	71.3	71.3	88	67.6	0	0	---	0.00	29.929 
01:45	71.3	71.3	71.3	89	67.9	0	0	---	0.00	29.928 
01:50	71.1	71.1	71.1	89	67.7	0	0	---	0.00	29.928 
01:55	71.1	71.1	71.1	90	68.0	0	0	---	0.00	29.930 
02:00	71.1	71.1	71.1	90	68.0	0	0	---	0.00	29.930 
02:05	70.9	70.9	70.9	90	67.8	0	0	---	0.00	29.929 
02:10	70.9	70.9	70.9	90	67.8	0	0	---	0.00	29.928 
02:15	70.8	70.8	70.8	90	67.7	0	0	---	0.00	29.931 
02:20	70.6	70.6	70.6	90	67.5	0	0	---	0.00	29.932 
02:25	70.6	70.6	70.6	91	67.8	0	0	---	0.00	29.933 
02:30	70.4	70.4	70.4	91	67.6	0	0	---	0.00	29.934 
02:35	70.3	70.3	70.3	91	67.5	0	0	---	0.00	29.937 
02:40	70.3	70.3	70.3	91	67.5	0	0	---	0.00	29.937 
02:45	70.1	70.1	70.1	91	67.3	0	0	---	0.00	29.938 
02:50	69.9	69.9	69.9	92	67.5	0	0	---	0.00	29.939 
02:55	69.9	69.9	69.9	92	67.5	0	0	---	0.00	29.939 
03:00	69.8	69.8	69.8	92	67.4	0	0	---	0.00	29.938 
03:05	69.8	69.8	69.8	92	67.4	0	0	---	0.00	29.938 
03:10	69.8	69.8	69.8	93	67.7	0	0	---	0.00	29.938 
03:15	69.6	69.6	69.6	93	67.5	0	0	---	0.00	29.935 
03:20	69.6	69.6	69.6	93	67.5	0	0	---	0.00	29.935 
03:25	69.6	69.6	69.6	94	67.8	0	0	---	0.00	29.933 
03:30	69.4	69.4	69.4	94	67.6	0	0	---	0.00	29.937 
03:35	69.4	69.4	69.4	94	67.6	0	0	---	0.00	29.938 
03:40	69.3	69.3	69.3	94	67.5	0	0	---	0.00	29.937 
03:45	69.1	69.1	69.1	94	67.3	0	0	---	0.00	29.938 
03:50	69.1	69.1	69.1	94	67.3	0	0	---	0.00	29.938 
03:55	69.1	69.1	69.1	94	67.3	0	0	---	0.00	29.939 
04:00	69.1	69.1	69.1	94	67.3	0	0	---	0.00	29.937 
04:05	68.9	68.9	68.9	94	67.1	0	0	---	0.00	29.933 
04:10	68.9	68.9	68.9	95	67.4	0	0	---	0.00	29.932 
04:15	68.9	68.9	68.9	95	67.4	0	0	---	0.00	29.930 
04:20	68.9	68.9	68.9	95	67.4	0	0	---	0.00	29.931 
04:25	68.8	68.8	68.8	95	67.3	0	0	---	0.00	29.932 
04:30	68.8	68.8	68.8	95	67.3	0	0	---	0.00	29.936 
04:35	68.8	68.8	68.8	95	67.3	0	0	---	0.00	29.936 
04:40	68.6	68.6	68.6	95	67.1	0	0	---	0.00	29.934 
04:45	68.6	68.6	68.6	95	67.1	0	0	---	0.00	29.935 
04:50	68.6	68.6	68.6	95	67.1	0	0	---	0.00	29.938 
04:55	68.4	68.4	68.4	95	66.9	0	0	---	0.00	29.941 
05:00	68.4	68.4	68.4	95	66.9	0	0	---	0.00	29.942 
05:05	68.3	68.3	68.3	96	67.1	0	0	---	0.00	29.945 
05:10	68.3	68.3	68.3	96	67.1	0	0	---	0.00	29.946 
05:15	68.3	68.3	68.3	96	67.1	0	0	---	0.00	29.947 
05:20	68.3	68.3	68.3	96	67.1	0	0	---	0.00	29.947 
05:25	68.3	68.3	68.3	96	67.1	0	0	---	0.00	29.946 
05:30	68.3	68.3	68.3	96	67.1	0	0	---	0.00	29.945 
05:35	68.3	68.3	68.3	96	67.1	0	0	---	0.00	29.947 
05:40	68.3	68.3	68.3	96	67.1	0	0	---	0.00	29.946 
05:45	68.3	68.3	68.3	96	67.1	0	0	---	0.00	29.946 
05:50	68.3	68.3	68.3	96	67.1	0	0	---	0.00	29.946 
05:55	68.3	68.3	68.3	96	67.1	0	0	---	0.00	29.947 
06:00	68.3	68.3	68.3	96	67.1	0	0	---	0.00	29.947 
06:05	68.3	68.3	68.3	96	67.1	0	0	---	0.00	29.949 
06:10	68.3	68.3	68.3	96	67.1	0	0	---	0.00	29.949 
06:15	68.3	68.3	68.3	96	67.1	0	0	---	0.00	29.949 
06:20	68.4	68.4	68.4	96	67.2	0	0	---	0.00	29.950 
06:25	68.4	68.4	68.4	96	67.2	0	0	---	0.00	29.950 
06:30	68.6	68.6	68.6	96	67.4	0	0	---	0.00	29.948 
06:35	68.9	68.9	68.9	96	67.7	0	0	---	0.00	29.948 
06:40	69.1	69.1	69.1	96	67.9	0	0	---	0.00	29.949 
06:45	69.4	69.4	69.4	96	68.2	0	0	---	0.00	29.950 
06:50	69.9	69.9	69.9	96	68.7	0	0	---	0.00	29.948 
06:55	70.3	70.3	70.3	96	69.1	0	0	---	0.00	29.950 
07:00	70.6	70.6	70.6	96	69.4	0	0	---	0.00	29.950 
07:05	71.1	71.1	71.1	96	69.9	0	0	---	0.00	29.957 
07:10	71.8	71.8	71.8	96	70.6	0	0	---	0.00	29.957 
07:15	72.7	72.7	72.7	95	71.2	0	0	---	0.00	29.958 
07:20	73.7	73.7	73.7	92	71.2	0	0	---	0.00	29.957 
07:25	74.7	74.7	74.7	86	70.2	0	0	---	0.00	29.957 
07:30	75.8	75.8	76.6	81	69.5	0	1	68	0.00	29.953 
07:35	77.0	77.0	78.6	78	69.6	0	0	---	0.00	29.955 
07:40	77.9	77.9	80.0	75	69.3	0	1	68	0.00	29.953 
07:45	78.3	78.3	80.6	73	68.9	0	1	68	0.00	29.957 
07:50	78.5	78.5	80.9	73	69.1	0	1	68	0.00	29.954 
07:55	78.8	78.8	81.3	72	69.0	0	1	68	0.00	29.956 
08:00	79.2	79.2	81.9	72	69.4	0	1	68	0.00	29.954 
08:05	79.6	79.6	82.3	70	68.9	0	1	68	0.00	29.957 
08:10	80.1	80.1	83.1	70	69.4	0	1	68	0.00	29.957 
08:15	80.7	80.7	84.1	70	70.0	0	1	68	0.00	29.955 
08:20	81.6	81.6	85.1	67	69.6	0	1	68	0.00	29.955 
08:25	82.4	82.4	86.1	65	69.4	0	2	68	0.00	29.958 
08:30	83.4	83.4	87.6	64	69.9	0	1	68	0.00	29.955 
08:35	83.6	83.6	87.6	63	69.6	0	2	68	0.00	29.956 
08:40	84.0	84.0	88.4	63	70.0	0	1	68	0.00	29.954 
08:45	83.8	83.8	87.2	60	68.4	0	1	68	0.00	29.956 
08:50	84.0	84.0	87.5	60	68.6	0	2	68	0.00	29.956 
08:55	84.0	84.0	87.0	58	67.6	0	2	68	0.00	29.954 
09:00	84.1	84.1	87.2	58	67.7	0	1	68	0.00	29.955 
09:05	84.7	84.7	88.1	58	68.3	0	2	68	0.00	29.953 
09:10	85.1	85.1	87.7	54	66.6	0	2	68	0.00	29.953 
09:15	85.3	85.3	88.8	57	68.3	1	4	270	0.00	29.952 
09:20	85.5	85.5	87.7	52	65.8	1	3	270	0.00	29.953 
09:25	85.5	85.5	87.7	52	65.8	1	3	248	0.00	29.955 
09:30	85.5	85.5	88.3	54	66.9	1	3	248	0.00	29.954 
09:35	85.7	85.7	87.7	51	65.5	0	2	248	0.00	29.952 
09:40	86.1	86.1	88.3	51	65.8	0	2	248	0.00	29.953 
09:45	86.3	86.3	89.3	53	67.1	1	3	248	0.00	29.951 
09:50	86.5	86.5	88.6	50	65.6	1	3	248	0.00	29.950 
09:55	87.0	87.0	89.1	49	65.5	1	2	270	0.00	29.948 
10:00	87.2	87.2	89.7	50	66.3	0	1	270	0.00	29.947 
10:05	87.6	87.6	90.4	50	66.6	0	1	270	0.00	29.947 
10:10	87.6	87.6	90.0	49	66.0	1	3	270	0.00	29.947 
10:15	87.8	87.8	89.7	47	65.0	1	2	270	0.00	29.949 
10:20	88.2	88.2	90.7	48	66.0	0	2	270	0.00	29.952 
10:25	88.4	88.4	90.3	46	64.9	0	2	270	0.00	29.952 
10:30	88.8	88.8	92.0	49	67.1	0	2	270	0.00	29.953 
10:35	89.0	89.0	91.2	46	65.5	1	3	270	0.00	29.952 
10:40	88.8	88.8	90.6	45	64.7	0	2	270	0.00	29.952 
10:45	89.5	89.5	91.7	45	65.3	1	2	270	0.00	29.948 
10:50	89.5	89.5	91.0	43	64.0	1	3	270	0.00	29.949 
10:55	89.5	89.5	92.1	46	65.9	1	5	270	0.00	29.950 
11:00	89.3	89.3	91.0	44	64.5	1	3	270	0.00	29.949 
11:05	89.7	89.7	93.2	48	67.4	0	2	45	0.00	29.949 
11:10	89.7	89.7	91.3	43	64.2	1	2	45	0.00	29.949 
11:15	89.9	89.9	91.9	44	65.0	0	2	45	0.00	29.948 
11:20	89.0	89.0	90.5	44	64.2	1	3	315	0.00	29.947 
11:25	88.8	88.8	90.9	46	65.3	1	3	270	0.00	29.946 
11:30	89.3	89.3	91.0	44	64.5	1	2	292	0.00	29.946 
11:35	89.7	89.7	91.3	43	64.2	0	2	270	0.00	29.945 
11:40	89.9	89.9	91.6	43	64.4	0	2	270	0.00	29.943 
11:45	89.9	89.9	93.1	47	66.9	0	2	270	0.00	29.943 
11:50	89.7	89.7	91.6	44	64.8	1	3	248	0.00	29.943 
11:55	88.8	88.8	90.9	46	65.3	0	2	248	0.00	29.944 
12:00	88.2	88.2	90.0	46	64.8	0	2	248	0.00	29.943 
12:05	87.8	87.8	89.4	46	64.4	0	2	248	0.00	29.944 
12:10	87.6	87.6	89.1	46	64.2	0	1	248	0.00	29.944 
12:15	87.8	87.8	89.4	46	64.4	0	1	248	0.00	29.943 
12:20	87.8	87.8	89.1	45	63.8	0	1	248	0.00	29.939 
12:25	88.4	88.4	90.6	47	65.6	0	2	248	0.00	29.937 
12:30	89.0	89.0	90.2	43	63.6	1	4	248	0.00	29.936 
12:35	89.5	89.5	91.7	45	65.3	1	2	248	0.00	29.936 
12:40	89.9	89.9	90.9	41	63.0	0	2	248	0.00	29.933 
12:45	89.7	89.7	90.6	41	62.8	0	3	248	0.00	29.931 
12:50	89.5	89.5	91.0	43	64.0	1	3	248	0.00	29.930 
12:55	89.5	89.5	90.6	42	63.3	1	4	112	0.00	29.930 
13:00	89.3	89.3	90.3	42	63.2	0	1	112	0.00	29.929 
13:05	88.8	88.8	89.9	43	63.4	0	1	112	0.00	29.930 
13:10	88.6	88.6	90.3	45	64.5	0	1	135	0.00	29.928 
13:15	88.4	88.4	90.0	45	64.3	1	3	202	0.00	29.931 
13:20	88.4	88.4	90.0	45	64.3	0	2	202	0.00	29.931 
13:25	88.6	88.6	89.9	44	63.9	0	2	202	0.00	29.928 
13:30	88.8	88.8	89.9	43	63.4	0	2	270	0.00	29.929 
13:35	89.3	89.3	91.0	44	64.5	0	2	270	0.00	29.927 
13:40	89.0	89.0	89.9	42	62.9	0	1	270	0.00	29.928 
13:45	88.6	88.6	90.6	46	65.1	0	1	270	0.00	29.929 
13:50	88.2	88.2	90.0	46	64.8	0	1	270	0.00	29.930 
13:55	88.0	88.0	89.7	46	64.6	1	3	270	0.00	29.929 
14:00	88.0	88.0	90.3	48	65.8	0	1	270	0.00	29.929 
14:05	88.6	88.6	91.0	47	65.7	0	3	248	0.00	29.927 
14:10	89.5	89.5	91.7	45	65.3	0	2	248	0.00	29.925 
14:15	90.1	90.1	92.3	44	65.2	0	3	248	0.00	29.923 
14:20	90.5	90.5	94.2	47	67.5	1	3	248	0.00	29.924 
14:25	90.7	90.7	93.3	44	65.7	1	2	315	0.00	29.921 
14:30	91.2	91.2	93.3	42	64.9	0	2	315	0.00	29.917 
14:35	91.0	91.0	92.6	41	64.0	1	3	270	0.00	29.916 
14:40	91.0	91.0	91.8	39	62.6	0	2	270	0.00	29.914 
14:45	91.0	91.0	93.0	42	64.7	0	2	270	0.00	29.914 
14:50	91.4	91.4	93.2	41	64.3	0	2	270	0.00	29.912 
14:55	91.0	91.0	92.2	40	63.3	0	1	270	0.00	29.913 
15:00	90.7	90.7	92.1	41	63.7	1	3	270	0.00	29.912 
15:05	91.0	91.0	91.8	39	62.6	1	2	338	0.00	29.911 
15:10	90.5	90.5	91.1	39	62.1	0	3	338	0.00	29.908 
15:15	89.9	89.9	91.2	42	63.7	1	2	315	0.00	29.908 
15:20	89.3	89.3	90.6	43	63.8	0	1	315	0.00	29.907 
15:25	88.8	88.8	90.2	44	64.0	0	1	315	0.00	29.907 
15:30	88.4	88.4	89.6	44	63.7	0	1	315	0.00	29.905 
15:35	88.6	88.6	89.3	42	62.5	0	1	315	0.00	29.903 
15:40	89.5	89.5	90.0	40	61.9	0	1	315	0.00	29.902 
15:45	89.7	89.7	90.9	42	63.5	0	1	315	0.00	29.901 
15:50	89.7	89.7	90.9	42	63.5	0	2	315	0.00	29.901 
15:55	89.5	89.5	90.6	42	63.3	0	3	338	0.00	29.900 
16:00	89.9	89.9	91.2	42	63.7	1	2	315	0.00	29.899 
16:05	89.7	89.7	91.3	43	64.2	0	2	292	0.00	29.900 
16:10	89.5	89.5	91.7	45	65.3	0	1	292	0.00	29.901 
16:15	89.5	89.5	91.0	43	64.0	0	2	292	0.00	29.900 
16:20	89.5	89.5	91.0	43	64.0	1	3	292	0.00	29.899 
16:25	89.5	89.5	90.6	42	63.3	1	3	292	0.00	29.894 
16:30	89.9	89.9	92.3	45	65.7	1	2	292	0.00	29.893 
16:35	90.1	90.1	91.2	41	63.2	1	2	292	0.00	29.891 
16:40	90.3	90.3	91.5	41	63.4	1	3	270	0.00	29.893 
16:45	89.9	89.9	91.2	42	63.7	1	3	248	0.00	29.892 
16:50	89.7	89.7	90.9	42	63.5	0	2	248	0.00	29.891 
16:55	89.9	89.9	90.5	40	62.3	1	2	270	0.00	29.888 
17:00	89.9	89.9	90.9	41	63.0	2	4	270	0.00	29.887 
17:05	89.7	89.7	90.6	41	62.8	2	3	270	0.00	29.887 
17:10	89.7	89.7	90.9	42	63.5	1	3	248	0.00	29.884 
17:15	89.9	89.9	90.9	41	63.0	2	3	270	0.00	29.884 
17:20	89.7	89.7	90.6	41	62.8	2	4	270	0.00	29.885 
17:25	89.3	89.3	90.6	43	63.8	1	4	270	0.00	29.886 
17:30	88.8	88.8	89.6	42	62.7	2	4	248	0.00	29.885 
17:35	88.6	88.6	89.6	43	63.2	1	2	315	0.00	29.884 
17:40	88.8	88.8	90.2	44	64.0	1	3	248	0.00	29.883 
17:45	88.8	88.8	89.9	43	63.4	1	2	248	0.00	29.883 
17:50	88.6	88.6	89.6	43	63.2	1	4	270	0.00	29.883 
17:55	88.6	88.6	89.6	43	63.2	1	3	292	0.00	29.883 
18:00	88.6	88.6	89.6	43	63.2	1	3	270	0.00	29.885 
18:05	88.8	88.8	89.9	43	63.4	1	2	315	0.00	29.885 
18:10	88.8	88.8	89.9	43	63.4	1	3	270	0.00	29.885 
18:15	88.6	88.6	89.6	43	63.2	1	2	270	0.00	29.884 
18:20	88.4	88.4	89.0	42	62.3	1	2	338	0.00	29.884 
18:25	88.2	88.2	89.3	44	63.5	1	3	315	0.00	29.884 
18:30	88.0	88.0	89.4	45	64.0	1	2	292	0.00	29.886 
18:35	87.6	87.6	88.8	45	63.6	1	2	270	0.00	29.886 
18:40	87.4	87.4	88.8	46	64.0	0	1	270	0.00	29.886 
18:45	87.4	87.4	88.8	46	64.0	1	3	270	0.00	29.888 
18:50	87.2	87.2	88.2	45	63.2	1	3	270	0.00	29.888 
18:55	86.7	86.7	87.5	45	62.8	1	3	248	0.00	29.888 
19:00	86.5	86.5	87.5	46	63.2	0	2	292	0.00	29.892 
19:05	86.3	86.3	87.2	46	63.0	0	1	292	0.00	29.891 
19:10	86.1	86.1	87.0	46	62.9	0	2	292	0.00	29.892 
19:15	85.9	85.9	86.9	47	63.3	0	1	292	0.00	29.890 
19:20	85.5	85.5	86.6	48	63.5	0	1	292	0.00	29.893 
19:25	85.3	85.3	86.1	47	62.8	0	2	292	0.00	29.893 
19:30	85.3	85.3	86.4	48	63.4	0	1	292	0.00	29.893 
19:35	84.9	84.9	85.8	48	63.0	0	0	---	0.00	29.893 
19:40	84.7	84.7	85.6	48	62.8	0	1	292	0.00	29.891 
19:45	84.3	84.3	85.3	49	63.0	0	1	292	0.00	29.890 
19:50	84.1	84.1	85.0	49	62.8	0	0	---	0.00	29.891 
19:55	83.8	83.8	84.9	50	63.1	0	0	---	0.00	29.889 
20:00	83.4	83.4	84.6	51	63.3	0	0	---	0.00	29.891 
20:05	83.0	83.0	84.3	52	63.5	0	1	292	0.00	29.886 
20:10	82.6	82.6	83.8	52	63.2	0	0	---	0.00	29.884 
20:15	82.0	82.0	83.4	54	63.7	0	0	---	0.00	29.884 
20:20	81.4	81.4	82.7	54	63.1	0	0	---	0.00	29.886 
20:25	80.9	80.9	82.3	55	63.2	0	0	---	0.00	29.890 
20:30	80.5	80.5	81.9	56	63.3	0	0	---	0.00	29.893 
20:35	80.1	80.1	81.5	56	63.0	0	0	---	0.00	29.893 
20:40	79.8	79.8	81.3	57	63.2	0	0	---	0.00	29.893 
20:45	79.4	79.4	80.9	58	63.3	0	0	---	0.00	29.896 
20:50	79.0	79.0	80.6	59	63.4	0	0	---	0.00	29.897 
20:55	78.6	78.6	80.3	60	63.5	0	0	---	0.00	29.897 
21:00	78.3	78.3	80.0	61	63.7	0	0	---	0.00	29.897 
21:05	77.9	77.9	79.6	62	63.8	0	0	---	0.00	29.898 
21:10	77.6	77.6	79.4	62	63.5	0	0	---	0.00	29.897 
21:15	77.4	77.4	79.2	63	63.8	0	0	---	0.00	29.897 
21:20	77.2	77.2	79.0	64	64.1	0	0	---	0.00	29.899 
21:25	76.8	76.8	78.6	64	63.7	0	0	---	0.00	29.899 
21:30	76.7	76.7	78.5	65	64.0	0	0	---	0.00	29.899 
21:35	76.5	76.5	78.3	66	64.3	0	0	---	0.00	29.899 
21:40	76.5	76.5	78.3	66	64.3	0	0	---	0.00	29.899 
21:45	76.3	76.3	78.1	66	64.1	0	0	---	0.00	29.902 
21:50	76.1	76.1	77.9	67	64.3	0	0	---	0.00	29.900 
21:55	76.1	76.1	77.8	68	64.8	0	0	---	0.00	29.905 
22:00	75.8	75.8	77.6	68	64.5	0	0	---	0.00	29.905 
22:05	75.6	75.6	77.3	69	64.7	0	0	---	0.00	29.902 
22:10	75.4	75.4	77.1	69	64.5	0	0	---	0.00	29.901 
22:15	75.3	75.3	77.0	70	64.8	0	0	---	0.00	29.900 
22:20	75.1	75.1	76.7	71	65.0	0	0	---	0.00	29.903 
22:25	74.9	74.9	74.9	72	65.2	0	0	---	0.00	29.904 
22:30	74.7	74.7	74.7	72	65.1	0	0	---	0.00	29.903 
22:35	74.6	74.6	74.6	72	65.0	0	0	---	0.00	29.901 
22:40	74.6	74.6	74.6	73	65.4	0	0	---	0.00	29.897 
22:45	74.6	74.6	74.6	73	65.4	0	0	---	0.00	29.898 
22:50	74.6	74.6	74.6	73	65.4	0	0	---	0.00	29.898 
22:55	74.4	74.4	74.4	73	65.2	0	0	---	0.00	29.898 
23:00	74.4	74.4	74.4	73	65.2	0	0	---	0.00	29.897 
23:05	74.2	74.2	74.2	74	65.4	0	0	---	0.00	29.897 
23:10	74.0	74.0	74.0	74	65.2	0	0	---	0.00	29.897 
23:15	73.9	73.9	73.9	75	65.5	0	0	---	0.00	29.897 
23:20	73.9	73.9	73.9	76	65.8	0	0	---	0.00	29.898 
23:25	73.7	73.7	73.7	76	65.6	0	0	---	0.00	29.898 
23:30	73.5	73.5	73.5	76	65.5	0	0	---	0.00	29.899 
23:35	73.3	73.3	73.3	77	65.6	0	0	---	0.00	29.900 
23:40	73.2	73.2	73.2	77	65.5	0	0	---	0.00	29.899 
23:45	73.0	73.0	73.0	78	65.7	0	0	---	0.00	29.899 
23:50	72.8	72.8	72.8	79	65.9	0	0	---	0.00	29.900 
23:55	72.7	72.7	72.7	79	65.8	0	0	---	0.00	29.900 

CoCoRaHS
IN-AL-39
A2 Web Hosting
Creative Commons License
GoDaddy
Look for:

loaded 2017-12-10 21:13:01 • last modified 2010-11-18 10:43:29
Privacy PolicyDisclaimer
• wx.awcolley.com is powered by PmWiki v.2002016 •
• all content (unless otherwise noted) © 2017 A W Colley